createdAt,value
2023-11-13T00:04:48.165Z,4.20
2023-11-13T00:07:16.261Z,2.80
2023-11-13T00:09:44.163Z,2.30
2023-11-13T00:12:12.063Z,2.00
2023-11-13T00:14:39.935Z,2.40
2023-11-13T00:17:08.126Z,2.30
2023-11-13T00:19:37.139Z,2.20
2023-11-13T00:22:05.361Z,2.30
2023-11-13T00:24:33.133Z,3.10
2023-11-13T00:27:00.881Z,2.60
2023-11-13T00:31:56.280Z,2.60
2023-11-13T00:36:52.640Z,2.60
2023-11-13T00:39:20.418Z,2.80
2023-11-13T00:41:48.170Z,3.20
2023-11-13T00:44:16.196Z,3.30
2023-11-13T00:46:44.194Z,3.80
2023-11-13T00:49:12.082Z,4.10
2023-11-13T00:51:39.805Z,3.80
2023-11-13T00:54:07.816Z,4.20
2023-11-13T00:56:35.474Z,3.90
2023-11-13T01:01:32.299Z,3.40
2023-11-13T01:04:00.262Z,3.90
2023-11-13T01:06:28.002Z,4.10
2023-11-13T01:08:56.382Z,4.20
2023-11-13T01:11:24.221Z,3.80
2023-11-13T01:13:52.062Z,4.10
2023-11-13T01:16:22.798Z,4.90
2023-11-13T01:18:54.795Z,4.90
2023-11-13T01:21:23.383Z,4.50
2023-11-13T01:23:51.328Z,5.10
2023-11-13T01:28:46.765Z,4.60
2023-11-13T01:33:46.050Z,4.70
2023-11-13T01:36:13.880Z,4.20
2023-11-13T01:38:42.488Z,4.40
2023-11-13T01:41:10.254Z,4.40
2023-11-13T01:43:38.150Z,4.30
2023-11-13T01:48:36.095Z,4.50
2023-11-13T01:51:04.291Z,4.40
2023-11-13T01:53:32.393Z,5.10
2023-11-13T01:56:00.685Z,6.30
2023-11-13T01:58:28.937Z,7.50
2023-11-13T02:00:56.799Z,6.70
2023-11-13T02:03:26.259Z,6.10
2023-11-13T02:05:54.447Z,5.60
2023-11-13T02:08:22.659Z,5.10
2023-11-13T02:10:50.713Z,5.90
2023-11-13T02:13:19.870Z,5.60
2023-11-13T02:15:47.734Z,5.30
2023-11-13T02:18:15.834Z,4.50
2023-11-13T02:23:16.121Z,4.50
2023-11-13T02:25:52.708Z,6.00
2023-11-13T02:28:21.112Z,5.90
2023-11-13T02:30:49.394Z,5.30
2023-11-13T02:33:17.763Z,5.00
2023-11-13T02:35:45.534Z,4.20
2023-11-13T02:38:13.498Z,5.20
2023-11-13T02:40:41.287Z,4.90
2023-11-13T02:43:09.588Z,4.70
2023-11-13T02:45:38.019Z,4.60
2023-11-13T02:48:06.271Z,4.30
2023-11-13T02:50:34.784Z,5.00
2023-11-13T02:53:02.804Z,4.70
2023-11-13T02:55:30.514Z,5.30
2023-11-13T02:57:58.901Z,4.70
2023-11-13T03:00:26.552Z,5.60
2023-11-13T03:02:54.312Z,4.40
2023-11-13T03:05:22.415Z,4.50
2023-11-13T03:07:50.184Z,4.50
2023-11-13T03:10:18.235Z,4.00
2023-11-13T03:12:45.930Z,4.10
2023-11-13T03:17:41.457Z,3.50
2023-11-13T03:20:10.372Z,4.00
2023-11-13T03:22:39.107Z,3.60
2023-11-13T03:25:09.766Z,3.30
2023-11-13T03:27:37.628Z,3.50
2023-11-13T03:30:10.282Z,3.40
2023-11-13T03:32:38.900Z,3.70
2023-11-13T03:35:07.635Z,3.50
2023-11-13T03:37:35.813Z,3.90
2023-11-13T03:40:04.103Z,3.70
2023-11-13T03:42:31.905Z,3.80
2023-11-13T03:45:00.060Z,3.90
2023-11-13T03:47:30.176Z,3.80
2023-11-13T03:49:58.209Z,4.00
2023-11-13T03:52:26.121Z,3.50
2023-11-13T03:54:54.309Z,3.50
2023-11-13T03:57:22.402Z,3.50
2023-11-13T03:59:50.438Z,3.70
2023-11-13T04:02:18.277Z,4.00
2023-11-13T04:04:46.535Z,4.20
2023-11-13T04:07:14.317Z,4.20
2023-11-13T04:09:42.536Z,4.50
2023-11-13T04:12:11.554Z,3.70
2023-11-13T04:14:39.633Z,3.70
2023-11-13T04:17:09.209Z,3.90
2023-11-13T04:19:36.913Z,4.80
2023-11-13T04:22:07.968Z,3.80
2023-11-13T04:24:36.135Z,4.70
2023-11-13T04:27:04.059Z,5.30
2023-11-13T04:29:32.455Z,5.00
2023-11-13T04:32:00.141Z,4.30
2023-11-13T04:34:28.130Z,4.90
2023-11-13T04:36:57.312Z,4.50
2023-11-13T04:39:25.213Z,4.30
2023-11-13T04:41:52.899Z,4.30
2023-11-13T04:44:21.022Z,4.40
2023-11-13T04:46:49.192Z,4.90
2023-11-13T04:49:17.641Z,5.60
2023-11-13T04:51:45.457Z,4.60
2023-11-13T04:54:13.985Z,4.40
2023-11-13T04:56:42.859Z,5.30
2023-11-13T04:59:10.796Z,5.30
2023-11-13T05:01:40.757Z,4.20
2023-11-13T05:04:09.032Z,4.50
2023-11-13T05:06:37.122Z,4.40
2023-11-13T05:09:05.075Z,4.20
2023-11-13T05:11:32.854Z,4.10
2023-11-13T05:14:00.642Z,4.20
2023-11-13T05:16:29.842Z,5.10
2023-11-13T05:18:57.997Z,4.30
2023-11-13T05:21:26.233Z,3.70
2023-11-13T05:23:54.001Z,4.10
2023-11-13T05:26:21.945Z,3.90
2023-11-13T05:28:50.025Z,3.90
2023-11-13T05:31:18.192Z,3.60
2023-11-13T05:33:46.270Z,2.90
2023-11-13T05:36:14.242Z,3.80
2023-11-13T05:38:43.398Z,3.70
2023-11-13T05:41:11.569Z,3.90
2023-11-13T05:43:39.417Z,3.30
2023-11-13T05:46:08.569Z,3.30
2023-11-13T05:48:36.604Z,3.30
2023-11-13T05:51:05.133Z,3.40
2023-11-13T05:53:33.712Z,3.30
2023-11-13T05:56:01.402Z,3.40
2023-11-13T05:58:29.504Z,3.00
2023-11-13T06:00:58.870Z,3.30
2023-11-13T06:03:27.178Z,2.80
2023-11-13T06:05:55.210Z,2.50
2023-11-13T06:08:23.162Z,3.20
2023-11-13T06:10:51.026Z,3.00
2023-11-13T06:13:18.983Z,3.30
2023-11-13T06:15:47.090Z,3.40
2023-11-13T06:20:44.205Z,2.60
2023-11-13T06:23:12.131Z,2.50
2023-11-13T06:25:39.865Z,2.40
2023-11-13T06:28:08.023Z,2.50
2023-11-13T06:30:35.920Z,2.30
2023-11-13T06:33:04.418Z,2.20
2023-11-13T06:35:33.584Z,2.40
2023-11-13T06:38:02.055Z,3.10
2023-11-13T06:40:30.042Z,3.40
2023-11-13T06:42:58.273Z,3.20
2023-11-13T06:45:26.054Z,3.50
2023-11-13T06:47:54.112Z,3.00
2023-11-13T06:50:21.945Z,3.50
2023-11-13T06:52:52.527Z,3.40
2023-11-13T06:55:20.760Z,3.30
2023-11-13T06:57:49.042Z,3.50
2023-11-13T07:00:18.020Z,3.70
2023-11-13T07:02:49.141Z,3.60
2023-11-13T07:05:17.117Z,3.60
2023-11-13T07:07:44.980Z,3.40
2023-11-13T07:12:42.761Z,3.30
2023-11-13T07:15:13.167Z,3.70
2023-11-13T07:17:41.198Z,3.90
2023-11-13T07:20:14.700Z,4.00
2023-11-13T07:22:42.522Z,3.60
2023-11-13T07:25:10.474Z,3.30
2023-11-13T07:27:38.262Z,3.30
2023-11-13T07:30:07.109Z,3.20
2023-11-13T07:32:35.496Z,3.40
2023-11-13T07:35:04.476Z,3.50
2023-11-13T07:37:34.820Z,3.40
2023-11-13T07:40:02.800Z,3.10
2023-11-13T07:42:30.829Z,3.20
2023-11-13T07:45:00.210Z,3.30
2023-11-13T07:47:29.174Z,3.30
2023-11-13T07:49:59.351Z,2.70
2023-11-13T07:52:28.282Z,2.10
2023-11-13T07:54:57.260Z,2.20
2023-11-13T07:57:25.032Z,2.80
2023-11-13T07:59:52.807Z,2.80
2023-11-13T08:02:21.514Z,2.50
2023-11-13T08:04:49.815Z,3.00
2023-11-13T08:07:25.332Z,2.80
2023-11-13T08:09:53.998Z,2.80
2023-11-13T08:12:22.058Z,3.40
2023-11-13T08:14:49.769Z,3.30
2023-11-13T08:17:18.684Z,3.40
2023-11-13T08:19:47.400Z,2.90
2023-11-13T08:22:15.496Z,2.80
2023-11-13T08:24:43.511Z,2.30
2023-11-13T08:27:11.481Z,2.50
2023-11-13T08:29:39.152Z,3.00
2023-11-13T08:32:07.512Z,3.60
2023-11-13T08:34:35.313Z,2.30
2023-11-13T08:37:24.011Z,2.70
2023-11-13T08:39:51.724Z,2.70
2023-11-13T08:42:19.442Z,2.80
2023-11-13T08:44:47.294Z,2.30
2023-11-13T08:47:16.641Z,2.30
2023-11-13T08:49:44.552Z,2.60
2023-11-13T08:52:12.713Z,3.00
2023-11-13T08:54:40.845Z,3.10
2023-11-13T08:57:08.609Z,3.40
2023-11-13T08:59:36.678Z,2.20
2023-11-13T09:02:08.024Z,3.10
2023-11-13T09:04:36.234Z,2.30
2023-11-13T09:07:10.814Z,2.40
2023-11-13T09:09:39.904Z,2.60
2023-11-13T09:12:08.344Z,2.60
2023-11-13T09:14:36.562Z,2.50
2023-11-13T09:17:12.512Z,2.50
2023-11-13T09:19:43.308Z,2.30
2023-11-13T09:22:11.819Z,2.50
2023-11-13T09:24:41.172Z,2.50
2023-11-13T09:27:12.996Z,2.50
2023-11-13T09:29:44.943Z,2.70
2023-11-13T09:32:12.915Z,2.70
2023-11-13T09:34:45.122Z,2.60
2023-11-13T09:37:13.207Z,2.40
2023-11-13T09:39:43.745Z,2.70
2023-11-13T09:42:17.700Z,2.80
2023-11-13T09:47:30.569Z,3.00
2023-11-13T09:50:16.592Z,2.60
2023-11-13T09:52:51.670Z,3.30
2023-11-13T09:55:21.834Z,2.50
2023-11-13T09:58:00.500Z,3.40
2023-11-13T10:00:33.718Z,2.60
2023-11-13T10:03:01.918Z,2.70
2023-11-13T10:05:31.973Z,3.00
2023-11-13T10:07:59.820Z,2.60
2023-11-13T10:10:48.924Z,2.40
2023-11-13T10:13:23.188Z,2.20
2023-11-13T10:15:51.229Z,2.30
2023-11-13T10:18:27.430Z,1.90
2023-11-13T10:21:16.616Z,2.10
2023-11-13T10:23:44.592Z,1.80
2023-11-13T10:26:16.077Z,1.70
2023-11-13T10:28:43.908Z,1.90
2023-11-13T10:31:14.759Z,1.50
2023-11-13T10:34:00.687Z,2.00
2023-11-13T10:36:33.459Z,2.00
2023-11-13T10:39:01.937Z,2.70
2023-11-13T10:41:31.392Z,2.50
2023-11-13T10:43:59.160Z,2.70
2023-11-13T10:46:32.033Z,2.40
2023-11-13T10:49:01.308Z,2.00
2023-11-13T10:51:31.899Z,2.10
2023-11-13T10:54:06.828Z,2.90
2023-11-13T10:56:36.073Z,2.80
2023-11-13T10:59:04.581Z,2.50
2023-11-13T11:01:33.628Z,2.50
2023-11-13T11:04:06.892Z,2.50
2023-11-13T11:06:39.155Z,2.70
2023-11-13T11:09:09.234Z,2.50
2023-11-13T11:11:38.065Z,2.60
2023-11-13T11:14:14.304Z,3.10
2023-11-13T11:16:44.206Z,3.10
2023-11-13T11:19:33.280Z,2.80
2023-11-13T11:22:34.756Z,3.10
2023-11-13T11:25:23.661Z,2.70
2023-11-13T11:27:52.008Z,2.90
2023-11-13T11:30:19.908Z,2.90
2023-11-13T11:33:01.846Z,2.60
2023-11-13T11:35:39.176Z,3.30
2023-11-13T11:38:27.969Z,2.20
2023-11-13T11:40:59.728Z,2.10
2023-11-13T11:43:34.226Z,2.20
2023-11-13T11:46:07.599Z,2.50
2023-11-13T11:48:39.461Z,2.20
2023-11-13T11:51:21.368Z,2.10
2023-11-13T11:54:01.076Z,2.30
2023-11-13T11:56:29.519Z,1.90
2023-11-13T11:58:57.616Z,2.20
2023-11-13T12:01:27.485Z,2.20
2023-11-13T12:03:55.301Z,2.30
2023-11-13T12:06:23.335Z,2.20
2023-11-13T12:08:52.583Z,2.40
2023-11-13T12:11:21.280Z,2.70
2023-11-13T12:13:49.270Z,2.10
2023-11-13T12:16:17.200Z,2.20
2023-11-13T12:18:45.322Z,2.30
2023-11-13T12:21:13.393Z,2.50
2023-11-13T12:23:41.215Z,2.90
2023-11-13T12:26:14.289Z,4.10
2023-11-13T12:28:44.442Z,12.20
2023-11-13T12:31:20.907Z,13.00
2023-11-13T12:33:49.067Z,6.10
2023-11-13T12:36:18.400Z,4.20
2023-11-13T12:38:48.120Z,4.40
2023-11-13T12:41:16.266Z,4.30
2023-11-13T12:43:44.356Z,4.90
2023-11-13T12:46:13.528Z,4.70
2023-11-13T12:48:42.774Z,5.90
2023-11-13T12:51:11.793Z,6.70
2023-11-13T12:53:47.403Z,7.90
2023-11-13T12:56:15.297Z,6.50
2023-11-13T12:58:44.488Z,9.10
2023-11-13T13:01:16.796Z,6.20
2023-11-13T13:03:46.546Z,7.00
2023-11-13T13:06:14.825Z,6.50
2023-11-13T13:08:43.584Z,4.50
2023-11-13T13:11:11.887Z,4.80
2023-11-13T13:13:45.640Z,4.90
2023-11-13T13:16:20.504Z,5.40
2023-11-13T13:18:50.097Z,6.90
2023-11-13T13:21:17.870Z,7.70
2023-11-13T13:23:45.826Z,5.30
2023-11-13T13:26:14.041Z,3.30
2023-11-13T13:28:42.056Z,2.50
2023-11-13T13:31:12.724Z,1.60
2023-11-13T13:33:41.838Z,1.40
2023-11-13T13:36:10.818Z,2.20
2023-11-13T13:38:38.767Z,10.80
2023-11-13T13:41:06.821Z,11.20
2023-11-13T13:43:34.524Z,4.00
2023-11-13T13:46:04.161Z,3.50
2023-11-13T13:48:33.242Z,3.40
2023-11-13T13:51:02.174Z,6.60
2023-11-13T13:53:33.703Z,5.30
2023-11-13T13:56:02.426Z,5.20
2023-11-13T13:58:30.217Z,4.30
2023-11-13T14:00:58.167Z,2.70
2023-11-13T14:03:26.032Z,1.70
2023-11-13T14:05:54.187Z,1.50
2023-11-13T14:08:22.317Z,1.70
2023-11-13T14:10:52.788Z,1.20
2023-11-13T14:13:24.120Z,1.40
2023-11-13T14:18:26.192Z,1.60
2023-11-13T14:20:57.628Z,1.30
2023-11-13T14:23:27.334Z,1.40
2023-11-13T14:25:55.819Z,1.90
2023-11-13T14:28:24.273Z,1.70
2023-11-13T14:30:52.528Z,1.80
2023-11-13T14:33:23.748Z,2.20
2023-11-13T14:35:52.498Z,2.20
2023-11-13T14:38:20.635Z,4.20
2023-11-13T14:40:48.397Z,8.50
2023-11-13T14:43:16.304Z,7.80
2023-11-13T14:45:45.769Z,7.30
2023-11-13T14:48:14.713Z,5.50
2023-11-13T14:50:43.616Z,7.60
2023-11-13T14:53:11.461Z,4.40
2023-11-13T14:55:39.943Z,4.20
2023-11-13T14:58:08.035Z,4.40
2023-11-13T15:00:35.884Z,6.00
2023-11-13T15:03:03.718Z,6.20
2023-11-13T15:05:31.882Z,6.00
2023-11-13T15:07:59.642Z,15.60
2023-11-13T15:10:28.700Z,9.00
2023-11-13T15:12:56.642Z,8.60
2023-11-13T15:15:25.459Z,8.40
2023-11-13T15:17:53.422Z,8.40
2023-11-13T15:20:22.258Z,10.40
2023-11-13T15:23:08.805Z,6.90
2023-11-13T15:25:42.482Z,5.10
2023-11-13T15:28:11.537Z,2.10
2023-11-13T15:30:40.078Z,1.50
2023-11-13T15:33:09.670Z,2.00
2023-11-13T15:35:38.929Z,1.80
2023-11-13T15:38:06.701Z,2.00
2023-11-13T15:40:34.889Z,1.90
2023-11-13T15:43:02.705Z,1.80
2023-11-13T15:45:32.222Z,1.80
2023-11-13T15:48:00.926Z,2.00
2023-11-13T15:50:30.428Z,2.20
2023-11-13T15:52:58.294Z,2.10
2023-11-13T15:55:26.175Z,1.90
2023-11-13T15:57:54.018Z,1.60
2023-11-13T16:00:24.113Z,1.40
2023-11-13T16:02:51.855Z,1.40
2023-11-13T16:05:20.680Z,1.60
2023-11-13T16:07:49.324Z,1.30
2023-11-13T16:10:17.510Z,1.80
2023-11-13T16:12:53.576Z,2.40
2023-11-13T16:15:24.161Z,2.40
2023-11-13T16:17:52.648Z,3.20
2023-11-13T16:20:20.809Z,3.30
2023-11-13T16:22:51.128Z,3.40
2023-11-13T16:25:19.051Z,3.20
2023-11-13T16:27:46.773Z,3.40
2023-11-13T16:30:14.901Z,2.50
2023-11-13T16:32:43.198Z,2.40
2023-11-13T16:35:13.904Z,2.40
2023-11-13T16:37:41.929Z,2.00
2023-11-13T16:40:10.836Z,2.60
2023-11-13T16:42:40.456Z,4.40
2023-11-13T16:45:13.920Z,3.10
2023-11-13T16:47:44.118Z,2.10
2023-11-13T16:50:12.760Z,2.60
2023-11-13T16:52:40.725Z,2.70
2023-11-13T16:55:09.201Z,2.70
2023-11-13T16:57:38.276Z,2.60
2023-11-13T17:00:10.201Z,2.50
2023-11-13T17:02:43.857Z,2.50
2023-11-13T17:05:12.672Z,2.50
2023-11-13T17:07:40.300Z,2.80
2023-11-13T17:10:10.786Z,2.50
2023-11-13T17:12:39.564Z,2.90
2023-11-13T17:15:09.560Z,2.70
2023-11-13T17:17:37.552Z,3.00
2023-11-13T17:20:09.334Z,2.10
2023-11-13T17:22:40.999Z,1.90
2023-11-13T17:25:09.796Z,1.90
2023-11-13T17:27:38.746Z,1.80
2023-11-13T17:30:08.278Z,1.90
2023-11-13T17:32:37.306Z,2.30
2023-11-13T17:35:06.033Z,1.90
2023-11-13T17:37:33.973Z,1.90
2023-11-13T17:40:01.799Z,1.90
2023-11-13T17:42:31.553Z,1.40
2023-11-13T17:44:59.519Z,2.20
2023-11-13T17:47:28.212Z,2.10
2023-11-13T17:49:57.299Z,2.40
2023-11-13T17:52:25.049Z,2.30
2023-11-13T17:54:52.922Z,1.60
2023-11-13T17:57:20.720Z,1.90
2023-11-13T17:59:50.538Z,1.80
2023-11-13T18:02:20.839Z,1.70
2023-11-13T18:04:49.622Z,1.70
2023-11-13T18:07:18.751Z,1.70
2023-11-13T18:09:48.180Z,1.80
2023-11-13T18:12:15.924Z,1.90
2023-11-13T18:14:44.188Z,2.10
2023-11-13T18:17:12.565Z,2.30
2023-11-13T18:19:40.584Z,3.50
2023-11-13T18:22:08.397Z,4.20
2023-11-13T18:24:38.215Z,4.10
2023-11-13T18:27:07.124Z,3.70
2023-11-13T18:29:35.923Z,3.90
2023-11-13T18:32:06.707Z,4.00
2023-11-13T18:34:35.705Z,3.80
2023-11-13T18:37:05.085Z,4.30
2023-11-13T18:39:34.283Z,4.30
2023-11-13T18:42:03.773Z,6.40
2023-11-13T18:44:31.593Z,7.50
2023-11-13T18:46:59.441Z,6.90
2023-11-13T18:49:27.251Z,6.80
2023-11-13T18:51:55.600Z,4.70
2023-11-13T18:54:23.457Z,5.50
2023-11-13T18:56:51.441Z,6.00
2023-11-13T18:59:20.202Z,3.60
2023-11-13T19:01:48.070Z,3.40
2023-11-13T19:04:16.134Z,2.70
2023-11-13T19:06:45.582Z,2.20
2023-11-13T19:09:18.033Z,1.60
2023-11-13T19:11:47.474Z,1.10
2023-11-13T19:14:15.273Z,1.20
2023-11-13T19:16:43.868Z,1.30
2023-11-13T19:19:13.314Z,1.50
2023-11-13T19:21:41.041Z,1.50
2023-11-13T19:24:10.054Z,1.50
2023-11-13T19:26:38.534Z,1.40
2023-11-13T19:29:06.255Z,1.40
2023-11-13T19:31:34.579Z,2.10
2023-11-13T19:34:02.392Z,1.90
2023-11-13T19:36:30.108Z,1.40
2023-11-13T19:38:58.696Z,1.30
2023-11-13T19:41:27.353Z,1.60
2023-11-13T19:43:55.315Z,1.40
2023-11-13T19:46:23.625Z,1.40
2023-11-13T19:48:53.644Z,1.70
2023-11-13T19:51:22.744Z,1.80
2023-11-13T19:53:50.887Z,1.90
2023-11-13T19:56:18.943Z,1.90
2023-11-13T19:58:46.728Z,2.10
2023-11-13T20:01:14.854Z,2.00
2023-11-13T20:03:43.185Z,1.90
2023-11-13T20:06:10.937Z,2.10
2023-11-13T20:08:39.259Z,2.00
2023-11-13T20:11:08.139Z,2.20
2023-11-13T20:13:37.204Z,2.20
2023-11-13T20:16:06.349Z,2.60
2023-11-13T20:18:37.236Z,2.90
2023-11-13T20:21:06.221Z,2.40
2023-11-13T20:23:35.883Z,2.20
2023-11-13T20:26:06.931Z,1.60
2023-11-13T20:28:36.584Z,2.20
2023-11-13T20:31:04.845Z,3.50
2023-11-13T20:33:32.945Z,4.30
2023-11-13T20:36:01.846Z,6.00
2023-11-13T20:38:30.511Z,4.10
2023-11-13T20:40:58.293Z,2.60
2023-11-13T20:43:26.089Z,1.90
2023-11-13T20:45:54.175Z,1.70
2023-11-13T20:48:22.515Z,1.70
2023-11-13T20:50:50.415Z,1.50
2023-11-13T20:53:20.734Z,1.70
2023-11-13T20:55:49.004Z,1.60
2023-11-13T20:58:16.659Z,1.30
2023-11-13T21:00:44.564Z,1.40
2023-11-13T21:03:12.847Z,1.40
2023-11-13T21:05:41.757Z,1.40
2023-11-13T21:08:12.052Z,2.00
2023-11-13T21:10:40.028Z,1.70
2023-11-13T21:13:08.052Z,1.60
2023-11-13T21:15:36.012Z,1.90
2023-11-13T21:18:04.342Z,1.70
2023-11-13T21:20:32.593Z,1.50
2023-11-13T21:23:01.076Z,1.60
2023-11-13T21:25:29.305Z,1.50
2023-11-13T21:27:57.289Z,1.60
2023-11-13T21:30:25.986Z,1.50
2023-11-13T21:32:53.874Z,1.50
2023-11-13T21:35:21.810Z,1.40
2023-11-13T21:37:50.486Z,1.20
2023-11-13T21:40:20.099Z,1.30
2023-11-13T21:42:48.679Z,1.30
2023-11-13T21:45:18.160Z,1.20
2023-11-13T21:47:46.990Z,1.10
2023-11-13T21:50:17.020Z,1.10
2023-11-13T21:52:45.045Z,1.10
2023-11-13T21:55:13.415Z,1.10
2023-11-13T21:57:41.848Z,1.00
2023-11-13T22:00:11.837Z,0.70
2023-11-13T22:02:41.143Z,0.70
2023-11-13T22:05:09.803Z,1.20
2023-11-13T22:07:40.761Z,1.00
2023-11-13T22:10:09.725Z,0.90
2023-11-13T22:12:37.962Z,0.80
2023-11-13T22:15:10.954Z,0.90
2023-11-13T22:17:39.203Z,0.70
2023-11-13T22:20:08.981Z,0.80
2023-11-13T22:22:37.290Z,1.00
2023-11-13T22:25:05.264Z,0.90
2023-11-13T22:27:33.124Z,0.90
2023-11-13T22:30:01.095Z,0.60
2023-11-13T22:32:29.303Z,0.40
2023-11-13T22:34:57.181Z,0.70
2023-11-13T22:37:25.213Z,0.40
2023-11-13T22:39:52.867Z,0.40
2023-11-13T22:42:21.833Z,0.60
2023-11-13T22:44:50.762Z,0.50
2023-11-13T22:47:18.500Z,0.40
2023-11-13T22:49:47.228Z,0.50
2023-11-13T22:52:15.890Z,0.60
2023-11-13T22:54:43.649Z,0.40
2023-11-13T22:57:11.889Z,0.30
2023-11-13T22:59:39.806Z,0.50
2023-11-13T23:02:07.622Z,0.60
2023-11-13T23:04:36.323Z,0.50
2023-11-13T23:07:05.412Z,0.60
2023-11-13T23:09:34.439Z,0.70
2023-11-13T23:12:02.590Z,0.70
2023-11-13T23:14:39.912Z,0.40
2023-11-13T23:17:07.776Z,0.50
2023-11-13T23:19:36.424Z,0.60
2023-11-13T23:22:05.037Z,0.50
2023-11-13T23:24:33.258Z,0.60
2023-11-13T23:27:01.663Z,0.60
2023-11-13T23:29:29.652Z,0.50
2023-11-13T23:31:57.733Z,0.40
2023-11-13T23:34:25.690Z,0.60
2023-11-13T23:36:53.735Z,0.40
2023-11-13T23:39:21.531Z,0.50
2023-11-13T23:41:49.397Z,0.50
2023-11-13T23:44:17.142Z,0.60
2023-11-13T23:46:48.842Z,0.60
2023-11-13T23:49:16.694Z,0.60
2023-11-13T23:51:44.345Z,0.70
2023-11-13T23:54:12.197Z,0.80
2023-11-13T23:56:39.949Z,0.80
2023-11-13T23:59:08.150Z,0.70
